Time;durP1;ratioP1;P1;durP2;ratioP2;P2;SDS_P1;SDS_P2;PMS_P1;PMS_P2;Temp;Humidity;BMP_temperature;BMP_pressure;BME280_temperature;BME280_humidity;BME280_pressure;Samples;Min_cycle;Max_cycle;Signal;HPM_P1;HPM_P2
2021/12/21 00:01:12;;;;;;;5.93;3.22;;;-2.50;99.90;;;;;;4994967;28;20494;-80
2021/12/21 00:03:37;;;;;;;13.05;3.80;;;-2.60;99.90;;;;;;5012482;28;20114;-79
2021/12/21 00:06:03;;;;;;;3.72;2.78;;;-2.60;99.90;;;;;;5012779;28;20123;-79
2021/12/21 00:08:29;;;;;;;2.53;2.35;;;-2.60;99.90;;;;;;4995039;28;20088;-80
2021/12/21 00:10:55;;;;;;;3.20;2.35;;;-2.60;99.90;;;;;;5012762;28;20077;-79
2021/12/21 00:13:35;;;;;;;1.27;1.17;;;-2.70;99.90;;;;;;5012835;28;20046;-80
2021/12/21 00:23:37;;;;;;;1.17;1.17;;;-2.70;99.90;;;;;;4996112;28;20042;-83
2021/12/21 00:26:05;;;;;;;3.75;3.40;;;-2.70;99.90;;;;;;5013099;28;20533;-81
2021/12/21 00:28:36;;;;;;;9.77;1.23;;;-2.70;99.90;;;;;;5011169;28;20093;-80
2021/12/21 00:31:02;;;;;;;0.65;0.65;;;-2.70;99.90;;;;;;5012199;28;20100;-80
2021/12/21 00:33:28;;;;;;;1.90;1.80;;;-2.70;99.90;;;;;;5012599;28;20395;-80
2021/12/21 00:35:54;;;;;;;3.80;3.45;;;-2.70;99.90;;;;;;5011083;28;20105;-80
2021/12/21 00:38:20;;;;;;;0.90;0.90;;;-2.80;99.90;;;;;;5011533;28;20136;-80
2021/12/21 00:40:46;;;;;;;3.78;3.42;;;-2.70;99.90;;;;;;5014367;28;20045;-80
2021/12/21 00:43:11;;;;;;;0.30;0.30;;;-2.70;99.90;;;;;;5014583;28;20883;-80
2021/12/21 00:45:37;;;;;;;3.42;2.88;;;-2.70;99.90;;;;;;5014504;28;20132;-79
2021/12/21 00:48:03;;;;;;;3.30;3.20;;;-2.70;99.90;;;;;;5014832;28;20057;-80
2021/12/21 00:50:29;;;;;;;1.50;1.45;;;-2.80;99.90;;;;;;5014730;28;20046;-80
2021/12/21 00:52:55;;;;;;;0.80;0.80;;;-2.80;99.90;;;;;;5030771;28;20053;-80
2021/12/21 00:55:22;;;;;;;5.68;5.15;;;-2.80;99.90;;;;;;5030864;28;20042;-81
2021/12/21 00:57:48;;;;;;;2.25;2.03;;;-2.80;99.90;;;;;;4997777;28;20096;-79
2021/12/21 01:00:16;;;;;;;2.20;2.10;;;-2.90;99.90;;;;;;5015505;28;20049;-81
2021/12/21 01:02:42;;;;;;;3.28;3.13;;;-2.80;99.90;;;;;;5015322;28;20042;-80
2021/12/21 01:05:17;;;;;;;2.28;1.95;;;-2.90;99.90;;;;;;4997728;28;20060;-80
2021/12/21 01:07:47;;;;;;;6.78;6.50;;;-2.90;99.90;;;;;;5015647;28;20206;-80
2021/12/21 01:25:51;;;;;;;9.23;8.38;;;-2.90;99.90;;;;;;4954589;29;20071;-81
2021/12/21 01:31:21;;;;;;;2.58;2.38;;;-3.00;99.90;;;;;;4938431;29;20160;-80
2021/12/21 01:34:11;;;;;;;3.05;2.85;;;-3.00;99.90;;;;;;4951916;29;20102;-82
2021/12/21 01:36:44;;;;;;;2.60;2.40;;;-3.00;99.90;;;;;;4954310;28;20496;-79
2021/12/21 01:39:49;;;;;;;0.95;0.95;;;-3.00;99.90;;;;;;4954322;29;20385;-82
2021/12/21 01:42:36;;;;;;;0.80;0.80;;;-3.00;99.90;;;;;;4954350;29;20519;-81
2021/12/21 01:49:36;;;;;;;4.57;1.67;;;-3.00;99.90;;;;;;4953773;29;20342;-80
2021/12/21 01:50:18;;;;;;;0.57;0.57;;;-3.00;99.90;;;;;;4937268;29;20492;-80
2021/12/21 01:52:43;;;;;;;2.95;2.85;;;-3.00;99.90;;;;;;4937885;29;20182;-79
2021/12/21 01:55:09;;;;;;;1.02;1.02;;;-3.00;99.90;;;;;;4938529;28;20047;-79
2021/12/21 01:57:35;;;;;;;0.50;0.50;;;-3.00;99.90;;;;;;5014332;28;20403;-80
2021/12/21 02:00:03;;;;;;;0.73;0.73;;;-3.10;99.90;;;;;;4996842;28;20057;-81
2021/12/21 02:02:29;;;;;;;2.10;2.05;;;-3.10;99.90;;;;;;4996811;28;20050;-80
2021/12/21 02:04:54;;;;;;;0.93;0.93;;;-3.10;99.90;;;;;;5014476;28;20617;-80
2021/12/21 02:07:20;;;;;;;1.75;1.65;;;-3.10;99.90;;;;;;5013113;28;20041;-81
2021/12/21 02:09:46;;;;;;;3.28;2.63;;;-3.10;99.90;;;;;;5014028;28;20050;-80
2021/12/21 02:12:17;;;;;;;0.68;0.68;;;-3.10;99.90;;;;;;5014036;28;20128;-80
2021/12/21 02:14:52;;;;;;;4.38;3.78;;;-3.10;99.90;;;;;;5014172;28;20042;-79
2021/12/21 02:20:41;;;;;;;10.70;6.72;;;-3.10;99.90;;;;;;5014204;28;20050;-80
2021/12/21 02:23:32;;;;;;;2.28;2.15;;;-3.10;99.90;;;;;;5029474;28;20037;-79
2021/12/21 02:28:47;;;;;;;2.28;2.15;;;-3.20;99.90;;;;;;4998173;28;20046;-80
2021/12/21 02:31:16;;;;;;;1.00;1.00;;;-3.10;99.90;;;;;;5007961;28;20528;-80
2021/12/21 02:33:42;;;;;;;2.38;2.28;;;-3.10;99.90;;;;;;5013394;28;20494;-79
2021/12/21 02:36:08;;;;;;;0.65;0.65;;;-3.10;99.90;;;;;;4996459;28;20432;-78
2021/12/21 02:38:33;;;;;;;0.60;0.60;;;-3.10;99.90;;;;;;5014020;28;20084;-77
2021/12/21 02:40:59;;;;;;;1.20;1.20;;;-3.20;99.90;;;;;;5006358;28;20045;-78
2021/12/21 02:43:28;;;;;;;2.53;2.42;;;-3.10;99.90;;;;;;5013715;28;20052;-78
2021/12/21 02:45:54;;;;;;;1.90;1.38;;;-3.10;99.90;;;;;;5013809;28;20081;-78
2021/12/21 02:48:19;;;;;;;0.75;0.75;;;-3.10;99.90;;;;;;5012528;28;20072;-78
2021/12/21 02:50:45;;;;;;;0.55;0.55;;;-3.10;99.90;;;;;;5012284;28;20513;-78
2021/12/21 02:53:11;;;;;;;0.75;0.75;;;-3.20;99.90;;;;;;5011985;28;20522;-78
2021/12/21 02:55:37;;;;;;;5.07;4.68;;;-3.20;99.90;;;;;;5012243;28;20050;-79
2021/12/21 02:58:04;;;;;;;1.75;1.75;;;-3.20;99.90;;;;;;5001623;28;20061;-78
2021/12/21 03:00:31;;;;;;;0.50;0.50;;;-3.20;99.90;;;;;;4993843;28;20083;-79
2021/12/21 03:02:59;;;;;;;0.60;0.60;;;-3.20;99.90;;;;;;4976124;28;20550;-78
2021/12/21 03:05:26;;;;;;;1.00;1.00;;;-3.20;99.90;;;;;;4993466;28;20124;-79
2021/12/21 03:08:16;;;;;;;1.45;1.42;;;-3.20;99.90;;;;;;4993818;28;20038;-76
2021/12/21 03:10:59;;;;;;;0.90;0.90;;;-3.30;99.90;;;;;;4975983;28;20057;-78
2021/12/21 03:16:09;;;;;;;0.60;0.60;;;-3.30;99.90;;;;;;4976086;28;20038;-78
2021/12/21 03:18:34;;;;;;;0.65;0.65;;;-3.30;99.90;;;;;;4993709;28;20129;-78
2021/12/21 03:21:00;;;;;;;1.83;1.33;;;-3.30;99.90;;;;;;4976261;28;20046;-79
2021/12/21 03:23:25;;;;;;;0.77;0.77;;;-3.30;99.90;;;;;;4993205;28;20492;-79
2021/12/21 03:25:51;;;;;;;16.48;15.25;;;-3.30;99.90;;;;;;4976288;28;20085;-79
2021/12/21 03:28:17;;;;;;;0.70;0.70;;;-3.30;99.90;;;;;;4993213;28;20038;-79
2021/12/21 03:30:42;;;;;;;0.70;0.70;;;-3.30;99.90;;;;;;4993255;28;20049;-78
2021/12/21 03:33:08;;;;;;;0.55;0.55;;;-3.30;99.90;;;;;;4975707;28;20053;-78
2021/12/21 03:35:33;;;;;;;0.55;0.55;;;-3.30;99.90;;;;;;4993445;28;20047;-78
2021/12/21 03:37:59;;;;;;;5.63;3.40;;;-3.40;99.90;;;;;;4993143;28;20042;-79
2021/12/21 03:40:25;;;;;;;4.90;3.70;;;-3.40;99.90;;;;;;4993052;28;20053;-79
2021/12/21 03:42:51;;;;;;;1.45;1.33;;;-3.30;99.90;;;;;;4975581;28;20046;-78
2021/12/21 03:45:18;;;;;;;3.33;3.13;;;-3.30;99.90;;;;;;4993281;28;20045;-78
2021/12/21 03:47:43;;;;;;;1.02;1.02;;;-3.40;99.90;;;;;;4975891;28;20077;-79
2021/12/21 03:50:17;;;;;;;0.40;0.40;;;-3.40;99.90;;;;;;4975851;28;20109;-78
2021/12/21 03:52:42;;;;;;;0.75;0.75;;;-3.40;99.90;;;;;;4993248;28;20046;-78
2021/12/21 03:55:09;;;;;;;3.80;3.60;;;-3.40;99.90;;;;;;4993481;28;20053;-79
2021/12/21 03:57:34;;;;;;;3.33;2.17;;;-3.40;99.90;;;;;;4975988;28;20093;-79
2021/12/21 04:00:00;;;;;;;1.45;1.35;;;-3.40;99.90;;;;;;4993560;28;20042;-79
2021/12/21 04:02:28;;;;;;;3.28;2.58;;;-3.50;99.90;;;;;;4992966;28;20062;-79
2021/12/21 04:04:56;;;;;;;5.60;1.42;;;-3.40;99.90;;;;;;4975971;28;20105;-79
2021/12/21 04:07:22;;;;;;;0.63;0.63;;;-3.40;99.90;;;;;;4976156;28;20081;-79
2021/12/21 04:09:48;;;;;;;0.90;0.90;;;-3.40;99.90;;;;;;4993380;28;20463;-79
2021/12/21 04:12:14;;;;;;;3.10;2.90;;;-3.40;99.90;;;;;;4992058;28;20058;-79
2021/12/21 04:14:40;;;;;;;0.52;0.52;;;-3.40;99.90;;;;;;4978337;28;20051;-80
2021/12/21 04:17:07;;;;;;;0.40;0.40;;;-3.40;99.90;;;;;;4979870;28;20487;-79
2021/12/21 04:19:32;;;;;;;0.82;0.82;;;-3.40;99.90;;;;;;4979340;28;20088;-79
2021/12/21 04:21:58;;;;;;;0.50;0.50;;;-3.40;99.90;;;;;;4997042;28;20078;-79
2021/12/21 04:24:24;;;;;;;0.50;0.50;;;-3.40;99.90;;;;;;4996742;28;20050;-79
2021/12/21 04:26:50;;;;;;;1.02;1.02;;;-3.40;99.90;;;;;;4996779;28;20046;-78
2021/12/21 04:29:16;;;;;;;0.75;0.75;;;-3.40;99.90;;;;;;4996660;28;20046;-79
2021/12/21 04:31:42;;;;;;;0.60;0.60;;;-3.40;99.90;;;;;;4979238;28;20065;-79
2021/12/21 04:34:07;;;;;;;1.42;1.42;;;-3.40;99.90;;;;;;4978965;28;20053;-78
2021/12/21 04:36:33;;;;;;;1.10;1.10;;;-3.50;99.90;;;;;;4996958;28;20042;-79
2021/12/21 04:39:02;;;;;;;4.75;2.05;;;-3.40;99.90;;;;;;4996799;28;20498;-79
2021/12/21 04:41:28;;;;;;;0.50;0.50;;;-3.40;99.90;;;;;;4978948;28;20046;-79
2021/12/21 04:43:56;;;;;;;0.73;0.73;;;-3.50;99.90;;;;;;4996632;28;20077;-79
2021/12/21 04:46:23;;;;;;;0.55;0.55;;;-3.50;99.90;;;;;;4978850;28;20052;-79
2021/12/21 04:48:50;;;;;;;1.17;1.17;;;-3.50;99.90;;;;;;4996308;28;20501;-79
2021/12/21 04:51:16;;;;;;;1.27;1.27;;;-3.50;99.90;;;;;;4978722;28;20049;-79
2021/12/21 04:53:42;;;;;;;0.55;0.55;;;-3.50;99.90;;;;;;4978576;28;20058;-78
2021/12/21 04:56:07;;;;;;;5.15;1.67;;;-3.50;99.90;;;;;;4996500;28;20042;-81
2021/12/21 04:58:33;;;;;;;0.80;0.75;;;-3.50;99.90;;;;;;4996510;28;20046;-82
2021/12/21 05:01:00;;;;;;;9.57;4.68;;;-3.50;99.90;;;;;;4978958;28;20503;-82
2021/12/21 05:03:26;;;;;;;3.20;1.08;;;-3.60;99.90;;;;;;4995767;28;20054;-82
2021/12/21 05:05:52;;;;;;;1.00;1.00;;;-3.50;99.90;;;;;;4996280;28;20046;-82
2021/12/21 05:08:24;;;;;;;0.30;0.30;;;-3.60;99.90;;;;;;4996253;28;20100;-82
2021/12/21 05:10:54;;;;;;;;;;;-3.60;99.90;;;;;;4996595;28;20049;-81
2021/12/21 05:13:23;;;;;;;0.30;0.30;;;-3.60;99.90;;;;;;4994862;28;20291;-82
2021/12/21 05:15:48;;;;;;;1.40;1.40;;;-3.60;99.90;;;;;;4978254;28;20050;-81
2021/12/21 05:18:15;;;;;;;0.52;0.52;;;-3.60;99.90;;;;;;4978474;28;20112;-81
2021/12/21 05:20:41;;;;;;;0.40;0.40;;;-3.60;99.90;;;;;;4995642;28;20050;-82
2021/12/21 05:23:08;;;;;;;1.17;1.17;;;-3.60;99.90;;;;;;4978544;28;20565;-81
2021/12/21 05:25:34;;;;;;;0.40;0.40;;;-3.60;99.90;;;;;;4994784;28;20046;-81
2021/12/21 05:28:00;;;;;;;0.85;0.85;;;-3.60;99.90;;;;;;4995470;28;20045;-81
2021/12/21 05:30:27;;;;;;;2.45;2.35;;;-3.70;99.90;;;;;;4978111;28;20046;-81
2021/12/21 05:32:53;;;;;;;0.40;0.40;;;-3.70;99.90;;;;;;4977933;28;20046;-79
2021/12/21 05:35:20;;;;;;;2.25;2.15;;;-3.70;99.90;;;;;;4978052;28;20042;-81
2021/12/21 05:37:48;;;;;;;1.00;0.93;;;-3.70;99.90;;;;;;4978271;28;20049;-81
2021/12/21 05:40:16;;;;;;;0.57;0.57;;;-3.70;99.90;;;;;;4995251;28;20054;-81
2021/12/21 05:42:44;;;;;;;0.63;0.63;;;-3.70;99.90;;;;;;4995626;28;20046;-80
2021/12/21 05:45:12;;;;;;;0.70;0.70;;;-3.70;99.90;;;;;;4977898;28;20050;-81
2021/12/21 05:47:38;;;;;;;0.50;0.50;;;-3.70;99.90;;;;;;4978247;28;20126;-81
2021/12/21 05:50:08;;;;;;;0.38;0.38;;;-3.80;99.90;;;;;;4995269;28;20502;-81
2021/12/21 05:52:34;;;;;;;0.38;0.38;;;-3.80;99.90;;;;;;4977792;28;20105;-82
2021/12/21 05:55:00;;;;;;;0.40;0.40;;;-3.80;99.90;;;;;;4995101;28;20050;-81
2021/12/21 05:57:26;;;;;;;0.50;0.50;;;-3.80;99.90;;;;;;4995365;28;20041;-82
2021/12/21 05:59:52;;;;;;;0.30;0.30;;;-3.80;99.90;;;;;;4995297;28;20042;-81
2021/12/21 06:02:18;;;;;;;0.40;0.40;;;-3.80;99.90;;;;;;4995134;28;20065;-81
2021/12/21 06:04:44;;;;;;;0.45;0.45;;;-3.80;99.90;;;;;;4977297;28;20062;-80
2021/12/21 06:07:10;;;;;;;0.47;0.47;;;-3.80;99.90;;;;;;4977365;28;20055;-80
2021/12/21 06:09:36;;;;;;;1.15;1.08;;;-3.80;99.90;;;;;;4993894;28;20055;-80
2021/12/21 06:23:40;;;;;;;0.45;0.45;;;-3.80;99.90;;;;;;4977067;28;20133;-80
2021/12/21 06:25:52;;;;;;;0.77;0.77;;;-3.80;99.90;;;;;;4976693;28;20064;-80
2021/12/21 06:28:19;;;;;;;0.43;0.43;;;-3.80;99.90;;;;;;4977282;28;20495;-80
2021/12/21 06:30:45;;;;;;;0.70;0.70;;;-3.80;99.90;;;;;;4976854;28;20099;-81
2021/12/21 06:33:11;;;;;;;0.40;0.40;;;-3.80;99.90;;;;;;4976907;28;20053;-81
2021/12/21 06:35:37;;;;;;;1.08;1.08;;;-3.80;99.90;;;;;;4993143;28;20050;-80
2021/12/21 06:38:04;;;;;;;0.50;0.50;;;-3.70;99.90;;;;;;4994257;28;20042;-81
2021/12/21 06:40:31;;;;;;;0.70;0.70;;;-3.70;99.90;;;;;;4976761;28;20043;-81
2021/12/21 06:43:00;;;;;;;0.75;0.75;;;-3.70;99.90;;;;;;4994440;28;20042;-80
2021/12/21 06:53:35;;;;;;;8.75;7.88;;;-3.80;99.90;;;;;;4976704;28;20057;-81
2021/12/21 06:56:02;;;;;;;0.50;0.50;;;-3.80;99.90;;;;;;4976525;28;20539;-80
2021/12/21 06:58:27;;;;;;;1.40;1.40;;;-3.80;99.90;;;;;;4993996;28;20050;-80
2021/12/21 07:00:53;;;;;;;3.85;3.72;;;-3.80;99.90;;;;;;4976391;28;20493;-80
2021/12/21 07:03:20;;;;;;;7.57;7.13;;;-3.80;99.90;;;;;;4994017;28;20508;-81
2021/12/21 07:05:50;;;;;;;0.47;0.47;;;-3.80;99.90;;;;;;4994756;28;20054;-80
2021/12/21 07:08:21;;;;;;;0.55;0.55;;;-3.90;99.90;;;;;;4993986;28;20046;-80
2021/12/21 07:11:01;;;;;;;0.88;0.88;;;-3.80;99.90;;;;;;4994021;28;20045;-81
2021/12/21 07:18:55;;;;;;;1.35;1.35;;;-3.90;99.90;;;;;;4993783;28;20053;-80
2021/12/21 07:21:21;;;;;;;4.97;4.50;;;-3.90;99.90;;;;;;4993836;28;20050;-81
2021/12/21 07:23:49;;;;;;;1.60;0.70;;;-3.90;99.90;;;;;;4993761;28;20502;-80
2021/12/21 07:26:18;;;;;;;1.45;1.23;;;-3.90;99.90;;;;;;4993829;28;20086;-80
2021/12/21 07:28:44;;;;;;;2.28;2.17;;;-3.90;99.90;;;;;;4975806;28;20054;-80
2021/12/21 07:31:10;;;;;;;1.08;1.08;;;-3.80;99.90;;;;;;4976003;28;20129;-80
2021/12/21 07:33:36;;;;;;;1.40;0.82;;;-3.90;99.90;;;;;;4993786;28;20113;-81
2021/12/21 07:36:02;;;;;;;6.53;6.10;;;-3.90;99.90;;;;;;4975799;28;20057;-81
2021/12/21 07:38:30;;;;;;;6.03;1.83;;;-3.90;99.90;;;;;;4993600;28;20042;-81
2021/12/21 07:40:57;;;;;;;3.58;3.38;;;-3.90;99.90;;;;;;4976008;28;20039;-81
2021/12/21 07:43:23;;;;;;;0.43;0.43;;;-4.00;99.90;;;;;;4993534;28;20043;-81
2021/12/21 07:45:50;;;;;;;1.33;1.33;;;-4.00;99.90;;;;;;4976003;28;20050;-81
2021/12/21 07:48:16;;;;;;;0.45;0.45;;;-4.00;99.90;;;;;;4976483;28;20431;-80
2021/12/21 07:50:42;;;;;;;1.98;1.88;;;-4.00;99.90;;;;;;4997273;28;20100;-81
2021/12/21 07:53:08;;;;;;;0.95;0.70;;;-3.90;99.90;;;;;;4997541;28;20049;-81
2021/12/21 07:55:34;;;;;;;0.55;0.55;;;-4.00;99.90;;;;;;4979765;28;20057;-81
2021/12/21 07:58:00;;;;;;;2.45;1.27;;;-4.00;99.90;;;;;;4997534;28;20042;-81
2021/12/21 08:00:26;;;;;;;0.40;0.40;;;-4.00;99.90;;;;;;4979936;28;20117;-81
2021/12/21 08:02:53;;;;;;;0.40;0.40;;;-4.00;99.90;;;;;;4996892;28;20057;-81
2021/12/21 08:05:19;;;;;;;0.50;0.50;;;-4.00;99.90;;;;;;4997353;28;20059;-81
2021/12/21 08:07:54;;;;;;;4.60;0.90;;;-4.00;99.90;;;;;;4997430;28;20138;-80
2021/12/21 08:10:27;;;;;;;0.50;0.50;;;-4.00;99.90;;;;;;4979574;28;20186;-81
2021/12/21 08:12:54;;;;;;;0.60;0.60;;;-4.00;99.90;;;;;;4997088;28;20046;-81
2021/12/21 08:15:21;;;;;;;1.83;1.83;;;-4.00;99.90;;;;;;4997028;28;20038;-81
2021/12/21 08:17:47;;;;;;;0.40;0.40;;;-3.90;99.90;;;;;;4995731;28;20050;-81
2021/12/21 08:20:12;;;;;;;2.30;2.22;;;-3.90;99.90;;;;;;4996699;28;20407;-81
2021/12/21 08:22:38;;;;;;;1.00;1.00;;;-3.80;99.90;;;;;;4996611;28;20043;-80
2021/12/21 08:25:06;;;;;;;0.60;0.60;;;-3.90;99.90;;;;;;4996901;28;20038;-80
2021/12/21 08:27:32;;;;;;;1.48;1.48;;;-3.80;99.90;;;;;;4996823;28;20042;-81
2021/12/21 08:29:58;;;;;;;5.78;2.05;;;-3.80;99.90;;;;;;4996815;28;20493;-81
2021/12/21 08:32:23;;;;;;;0.90;0.90;;;-3.70;99.90;;;;;;4996712;28;20042;-81
2021/12/21 08:34:49;;;;;;;0.45;0.45;;;-3.70;99.90;;;;;;4996676;28;20427;-81
2021/12/21 08:37:15;;;;;;;1.35;1.25;;;-3.70;99.90;;;;;;4996767;28;20042;-80
2021/12/21 08:39:41;;;;;;;0.50;0.50;;;-3.50;99.90;;;;;;4997135;28;20073;-80
2021/12/21 08:42:11;;;;;;;0.60;0.60;;;-3.60;99.90;;;;;;4978954;28;20483;-80
2021/12/21 08:44:37;;;;;;;1.38;1.30;;;-3.50;99.90;;;;;;4996744;28;20206;-80
2021/12/21 08:47:03;;;;;;;1.80;1.70;;;-3.50;99.90;;;;;;4996248;28;20138;-80
2021/12/21 08:49:29;;;;;;;13.57;1.63;;;-3.50;99.90;;;;;;4979025;28;20081;-80
2021/12/21 08:51:56;;;;;;;0.50;0.50;;;-3.50;99.90;;;;;;4979144;28;20046;-80
2021/12/21 08:54:22;;;;;;;1.85;1.02;;;-3.50;99.90;;;;;;4978639;28;20065;-80
2021/12/21 08:56:48;;;;;;;1.95;1.25;;;-3.50;99.90;;;;;;4995025;28;20125;-80
2021/12/21 08:59:15;;;;;;;1.10;1.10;;;-3.50;99.90;;;;;;4995904;28;20046;-80
2021/12/21 09:01:42;;;;;;;0.50;0.50;;;-3.40;99.90;;;;;;4996160;28;20129;-81
2021/12/21 09:04:08;;;;;;;1.15;1.05;;;-3.40;99.90;;;;;;4978534;28;20062;-80
2021/12/21 09:06:34;;;;;;;2.45;2.35;;;-3.40;99.90;;;;;;4978537;28;20051;-80
2021/12/21 09:08:59;;;;;;;0.50;0.50;;;-3.30;99.90;;;;;;4996171;28;20113;-80
2021/12/21 09:11:25;;;;;;;0.30;0.30;;;-3.30;99.90;;;;;;4996205;28;20042;-80
2021/12/21 09:13:51;;;;;;;1.07;1.07;;;-3.30;99.90;;;;;;4995692;28;20072;-80
2021/12/21 09:16:17;;;;;;;0.88;0.88;;;-3.30;99.90;;;;;;4995942;28;20054;-80
2021/12/21 09:18:44;;;;;;;4.45;2.05;;;-3.20;99.90;;;;;;4978519;28;20050;-81
2021/12/21 09:21:10;;;;;;;0.80;0.73;;;-3.20;99.90;;;;;;4995212;28;20070;-81
2021/12/21 09:23:36;;;;;;;2.72;2.42;;;-3.10;99.90;;;;;;4978095;28;20046;-81
2021/12/21 09:26:02;;;;;;;0.85;0.85;;;-3.10;99.90;;;;;;4995783;28;20038;-80
2021/12/21 09:28:27;;;;;;;4.40;3.08;;;-3.10;99.90;;;;;;4995370;28;20140;-81
2021/12/21 09:30:53;;;;;;;0.50;0.50;;;-3.00;99.90;;;;;;4978296;28;20049;-81
2021/12/21 09:33:19;;;;;;;0.60;0.60;;;-3.00;99.90;;;;;;4978082;28;20057;-81
2021/12/21 09:35:44;;;;;;;0.93;0.93;;;-3.00;99.90;;;;;;4977905;28;20057;-81
2021/12/21 09:38:11;;;;;;;0.68;0.68;;;-2.90;99.90;;;;;;4978347;28;20426;-81
2021/12/21 09:40:39;;;;;;;2.92;2.83;;;-2.90;99.90;;;;;;4995540;28;20054;-81
2021/12/21 09:43:07;;;;;;;1.73;1.65;;;-2.90;99.90;;;;;;4995707;28;20051;-81
2021/12/21 09:45:33;;;;;;;1.38;1.38;;;-2.80;99.90;;;;;;4978138;28;20050;-81
2021/12/21 09:47:59;;;;;;;0.40;0.40;;;-2.80;99.90;;;;;;4995444;28;20045;-81
2021/12/21 09:50:25;;;;;;;0.88;0.88;;;-2.80;99.90;;;;;;4977831;28;20057;-81
2021/12/21 09:52:52;;;;;;;4.05;3.47;;;-2.80;99.90;;;;;;4993771;28;20048;-81
2021/12/21 09:55:19;;;;;;;1.65;1.55;;;-2.70;99.90;;;;;;4977682;28;20077;-81
2021/12/21 09:57:45;;;;;;;0.75;0.75;;;-2.70;99.90;;;;;;4977916;28;20050;-80
2021/12/21 10:00:28;;;;;;;1.27;1.27;;;-2.60;99.90;;;;;;4977531;28;20155;-80
2021/12/21 10:03:02;;;;;;;1.05;1.05;;;-2.60;99.90;;;;;;4977330;28;20043;-81
2021/12/21 10:05:28;;;;;;;1.05;1.05;;;-2.50;99.90;;;;;;4977661;28;20058;-80
2021/12/21 10:08:05;;;;;;;3.70;1.75;;;-2.50;99.90;;;;;;4977827;28;20096;-81
2021/12/21 10:10:40;;;;;;;1.95;1.85;;;-2.50;99.90;;;;;;4977306;28;20483;-81
2021/12/21 10:13:14;;;;;;;1.50;1.35;;;-2.40;99.90;;;;;;4994646;28;20369;-79
2021/12/21 10:15:44;;;;;;;1.17;0.93;;;-2.40;99.90;;;;;;4993227;28;20086;-78
2021/12/21 10:18:10;;;;;;;1.00;1.00;;;-2.40;99.90;;;;;;4994804;28;20081;-79
2021/12/21 10:20:42;;;;;;;0.32;0.32;;;-2.30;99.90;;;;;;4977159;28;20050;-79
2021/12/21 10:23:23;;;;;;;2.42;2.25;;;-2.30;99.90;;;;;;4994825;28;20034;-78
2021/12/21 10:25:52;;;;;;;2.25;2.15;;;-2.30;99.90;;;;;;4994796;28;20057;-78
2021/12/21 10:28:35;;;;;;;4.60;4.28;;;-2.20;99.90;;;;;;4994650;28;20043;-79
2021/12/21 10:31:10;;;;;;;8.45;2.50;;;-2.20;99.90;;;;;;4976887;28;20104;-78
2021/12/21 10:33:38;;;;;;;3.65;3.40;;;-2.20;99.90;;;;;;4994389;28;20077;-78
2021/12/21 10:36:07;;;;;;;5.68;5.28;;;-2.20;99.90;;;;;;4977175;28;20057;-78
2021/12/21 10:38:42;;;;;;;12.57;10.80;;;-2.10;99.90;;;;;;4994598;28;20038;-78
2021/12/21 10:41:10;;;;;;;6.50;2.85;;;-2.10;99.90;;;;;;4976735;28;20487;-78
2021/12/21 10:43:36;;;;;;;3.85;3.65;;;-2.00;99.90;;;;;;4976756;28;20046;-78
2021/12/21 10:46:02;;;;;;;5.15;4.07;;;-2.00;99.90;;;;;;4976635;28;20046;-78
2021/12/21 10:48:29;;;;;;;9.65;8.85;;;-1.90;99.90;;;;;;4993932;28;20561;-78
2021/12/21 10:50:55;;;;;;;5.68;5.40;;;-1.90;99.90;;;;;;4994026;28;20488;-78
2021/12/21 10:53:24;;;;;;;3.17;2.97;;;-1.80;99.90;;;;;;4992958;28;20053;-78
2021/12/21 10:56:09;;;;;;;2.85;2.60;;;-1.70;99.90;;;;;;4976464;28;20046;-78
2021/12/21 10:58:42;;;;;;;5.55;4.20;;;-1.70;99.90;;;;;;4976573;28;20046;-79
2021/12/21 11:01:15;;;;;;;11.15;8.05;;;-1.60;99.90;;;;;;4992894;28;20145;-78
2021/12/21 11:03:51;;;;;;;5.05;4.65;;;-1.60;99.90;;;;;;4993706;28;20105;-78
2021/12/21 11:06:27;;;;;;;2.42;2.38;;;-1.60;99.90;;;;;;4993946;28;20398;-79
2021/12/21 11:08:55;;;;;;;3.65;3.03;;;-1.60;99.90;;;;;;4976285;28;20120;-78
2021/12/21 11:11:32;;;;;;;19.38;4.93;;;-1.50;99.90;;;;;;4992680;28;20442;-78
2021/12/21 11:14:08;;;;;;;3.15;2.88;;;-1.60;99.90;;;;;;4976098;28;20050;-78
2021/12/21 11:16:52;;;;;;;1.55;1.55;;;-1.60;99.90;;;;;;4994515;28;20038;-79
2021/12/21 11:19:20;;;;;;;2.42;2.33;;;-1.50;99.90;;;;;;4976797;28;20522;-79
2021/12/21 11:21:47;;;;;;;2.25;2.15;;;-1.50;99.90;;;;;;4993769;28;20363;-80
2021/12/21 11:24:15;;;;;;;3.13;2.55;;;-1.40;99.90;;;;;;4975904;28;20065;-80
2021/12/21 11:26:45;;;;;;;2.72;2.35;;;-1.40;99.90;;;;;;4976097;28;20042;-79
2021/12/21 11:29:17;;;;;;;1.30;1.13;;;-1.30;99.90;;;;;;4993780;28;20042;-79
2021/12/21 11:31:44;;;;;;;;;;;-1.30;99.90;;;;;;4976577;28;20443;-80
2021/12/21 11:34:17;;;;;;;1.52;1.42;;;-1.30;99.90;;;;;;4993581;28;19922;-79
2021/12/21 11:39:41;;;;;;;5.75;3.30;;;-1.20;99.90;;;;;;4993574;28;20078;-79
2021/12/21 11:42:11;;;;;;;2.03;1.92;;;-1.20;99.90;;;;;;4976299;28;20483;-80
2021/12/21 11:44:50;;;;;;;4.30;3.25;;;-1.10;99.90;;;;;;4993751;28;20088;-78
2021/12/21 11:47:22;;;;;;;1.73;1.60;;;-1.00;99.90;;;;;;4993277;28;20050;-79
2021/12/21 11:49:50;;;;;;;5.85;5.30;;;-1.00;99.90;;;;;;4993192;28;20050;-79
2021/12/21 11:52:24;;;;;;;4.95;3.45;;;-1.00;99.90;;;;;;4993338;28;20467;-79
2021/12/21 11:54:56;;;;;;;3.90;2.55;;;-1.00;99.90;;;;;;4975777;28;20057;-78
2021/12/21 11:57:41;;;;;;;;;;;-1.00;99.90;;;;;;4976062;28;20050;-78
2021/12/21 12:00:13;;;;;;;7.22;4.00;;;-0.90;99.90;;;;;;4976059;28;19929;-79
2021/12/21 12:02:39;;;;;;;;;;;-0.80;99.90;;;;;;4976281;28;20038;-79
2021/12/21 12:05:18;;;;;;;2.00;1.90;;;-0.80;99.90;;;;;;4993081;28;19968;-79
2021/12/21 12:07:44;;;;;;;1.48;1.38;;;-0.70;99.90;;;;;;4975607;28;20109;-79
2021/12/21 12:10:14;;;;;;;2.55;1.27;;;-0.60;99.90;;;;;;4993233;28;20042;-81
2021/12/21 12:12:41;;;;;;;2.47;2.38;;;-0.60;99.90;;;;;;4993271;28;20073;-79
2021/12/21 12:15:08;;;;;;;3.10;1.95;;;-0.50;99.90;;;;;;4975693;28;20065;-79
2021/12/21 12:17:48;;;;;;;2.28;1.83;;;-0.50;99.90;;;;;;4975847;28;20479;-79
2021/12/21 12:20:14;;;;;;;2.90;1.83;;;-0.50;99.90;;;;;;4992867;28;20475;-78
2021/12/21 12:22:46;;;;;;;8.88;3.33;;;-0.40;99.90;;;;;;4991684;28;20046;-78
2021/12/21 12:25:21;;;;;;;13.40;3.67;;;-0.40;99.90;;;;;;4993058;28;20093;-79
2021/12/21 12:27:52;;;;;;;13.68;10.15;;;-0.30;99.90;;;;;;4975629;28;20046;-79
2021/12/21 12:30:24;;;;;;;0.95;0.95;;;-0.30;99.90;;;;;;4975741;28;20038;-79
2021/12/21 12:33:01;;;;;;;2.05;1.95;;;-0.20;99.90;;;;;;4975619;28;20078;-79
2021/12/21 12:35:33;;;;;;;1.08;1.08;;;-0.30;99.90;;;;;;4994819;28;20042;-79
2021/12/21 12:38:04;;;;;;;5.18;2.65;;;-0.20;99.90;;;;;;4995289;28;20085;-79
2021/12/21 12:40:33;;;;;;;2.45;2.17;;;-0.20;99.90;;;;;;4979131;28;20042;-79
2021/12/21 12:43:09;;;;;;;0.95;0.95;;;-0.20;99.90;;;;;;4979147;28;20414;-78
2021/12/21 12:45:36;;;;;;;1.58;1.48;;;-0.20;99.90;;;;;;4996600;28;20133;-80
2021/12/21 12:48:04;;;;;;;3.08;1.90;;;-0.20;99.90;;;;;;4996102;28;20058;-81
2021/12/21 12:50:36;;;;;;;2.88;2.78;;;-0.10;99.90;;;;;;4996232;28;20042;-80
2021/12/21 12:53:05;;;;;;;4.38;1.98;;;-0.10;99.90;;;;;;4996411;28;20057;-80
2021/12/21 12:55:41;;;;;;;12.68;3.03;;;-0.10;99.90;;;;;;4978695;28;20042;-82
2021/12/21 12:58:20;;;;;;;2.13;1.52;;;-0.10;99.90;;;;;;4978814;28;20045;-81
2021/12/21 13:00:52;;;;;;;3.97;2.05;;;-0.10;99.90;;;;;;4978535;28;20104;-81
2021/12/21 13:03:18;;;;;;;4.05;3.08;;;0.00;99.90;;;;;;4978319;28;20140;-80
2021/12/21 13:05:53;;;;;;;11.45;2.95;;;0.00;99.90;;;;;;4995016;28;20565;-80
2021/12/21 13:08:26;;;;;;;9.70;3.67;;;0.00;99.90;;;;;;4995115;28;20045;-80
2021/12/21 13:10:58;;;;;;;1.90;1.80;;;0.10;99.90;;;;;;4994620;28;20108;-81
2021/12/21 13:13:35;;;;;;;7.47;4.78;;;0.10;99.90;;;;;;4994961;28;20042;-79
2021/12/21 13:16:09;;;;;;;2.80;1.73;;;0.10;99.90;;;;;;4977282;28;20457;-81
2021/12/21 13:18:42;;;;;;;1.17;1.08;;;0.10;99.90;;;;;;4995035;28;20050;-80
2021/12/21 13:21:22;;;;;;;2.25;2.10;;;0.20;99.90;;;;;;4977206;28;20054;-80
2021/12/21 13:23:51;;;;;;;1.45;1.45;;;0.20;99.90;;;;;;4994625;28;20128;-81
2021/12/21 13:26:18;;;;;;;4.95;2.20;;;0.20;99.90;;;;;;4994431;28;20043;-81
2021/12/21 13:28:50;;;;;;;4.80;4.07;;;0.30;99.90;;;;;;4977422;28;20133;-81
2021/12/21 13:31:21;;;;;;;2.90;2.65;;;0.30;99.90;;;;;;4977093;28;20051;-84
2021/12/21 13:33:56;;;;;;;4.15;3.85;;;0.20;99.90;;;;;;4976998;28;20054;-85
2021/12/21 13:36:37;;;;;;;1.35;1.10;;;0.20;99.90;;;;;;4977198;28;20050;-79
2021/12/21 13:39:19;;;;;;;2.08;1.98;;;0.20;99.90;;;;;;4993766;28;20050;-80
2021/12/21 13:41:49;;;;;;;0.70;0.70;;;0.20;99.90;;;;;;4976856;28;20046;-78
2021/12/21 13:44:24;;;;;;;2.58;2.38;;;0.20;99.90;;;;;;4977141;28;20450;-79
2021/12/21 13:46:51;;;;;;;8.27;3.38;;;0.20;99.90;;;;;;4992168;28;20407;-80
2021/12/21 13:49:17;;;;;;;7.72;5.10;;;0.20;99.90;;;;;;4976825;28;20038;-79
2021/12/21 13:51:51;;;;;;;6.22;2.58;;;0.30;99.90;;;;;;4976750;28;20050;-79
2021/12/21 13:54:18;;;;;;;6.90;2.58;;;0.30;99.90;;;;;;4976650;28;20542;-81
2021/12/21 13:56:44;;;;;;;4.60;4.22;;;0.30;99.90;;;;;;4992860;28;20050;-80
2021/12/21 13:59:11;;;;;;;6.20;5.47;;;0.30;99.90;;;;;;4992748;28;20495;-79
2021/12/21 14:01:37;;;;;;;2.13;1.90;;;0.30;99.90;;;;;;4976673;28;20522;-78